sensor_id;sensor_type;location;lat;lon;timestamp;pressure;altitude;pressure_sealevel;temperature;humidity
20622;BME280;10470;42.670;23.354;2022-12-18T00:02:34;95525.34;;;7.35;100.00
20622;BME280;10470;42.670;23.354;2022-12-18T00:05:19;95537.91;;;7.21;100.00
20622;BME280;10470;42.670;23.354;2022-12-18T00:08:05;95547.63;;;7.19;100.00
20622;BME280;10470;42.670;23.354;2022-12-18T00:10:50;95545.38;;;7.14;100.00
20622;BME280;10470;42.670;23.354;2022-12-18T00:13:36;95545.81;;;7.09;100.00
20622;BME280;10470;42.670;23.354;2022-12-18T00:16:13;95549.56;;;6.84;100.00
20622;BME280;10470;42.670;23.354;2022-12-18T00:18:59;95554.03;;;7.02;100.00
20622;BME280;10470;42.670;23.354;2022-12-18T00:21:45;95559.88;;;6.96;100.00
20622;BME280;10470;42.670;23.354;2022-12-18T00:24:30;95561.38;;;6.67;100.00
20622;BME280;10470;42.670;23.354;2022-12-18T00:27:16;95562.75;;;6.82;100.00
20622;BME280;10470;42.670;23.354;2022-12-18T00:30:01;95559.75;;;6.73;100.00
20622;BME280;10470;42.670;23.354;2022-12-18T00:32:47;95572.03;;;6.81;100.00
20622;BME280;10470;42.670;23.354;2022-12-18T00:35:32;95577.47;;;6.81;100.00
20622;BME280;10470;42.670;23.354;2022-12-18T00:38:17;95569.94;;;6.62;100.00
20622;BME280;10470;42.670;23.354;2022-12-18T00:41:04;95578.19;;;6.47;100.00
20622;BME280;10470;42.670;23.354;2022-12-18T00:43:49;95576.09;;;6.62;100.00
20622;BME280;10470;42.670;23.354;2022-12-18T00:46:35;95570.06;;;6.47;100.00
20622;BME280;10470;42.670;23.354;2022-12-18T00:49:20;95582.06;;;6.43;100.00
20622;BME280;10470;42.670;23.354;2022-12-18T00:52:06;95580.06;;;6.50;100.00
20622;BME280;10470;42.670;23.354;2022-12-18T00:54:51;95578.03;;;6.20;100.00
20622;BME280;10470;42.670;23.354;2022-12-18T00:57:36;95584.03;;;6.42;100.00
20622;BME280;10470;42.670;23.354;2022-12-18T01:00:22;95601.81;;;6.40;100.00
20622;BME280;10470;42.670;23.354;2022-12-18T01:03:09;95595.56;;;6.50;100.00
20622;BME280;10470;42.670;23.354;2022-12-18T01:05:57;95572.53;;;6.27;100.00
20622;BME280;10470;42.670;23.354;2022-12-18T01:08:43;95610.78;;;6.33;100.00
20622;BME280;10470;42.670;23.354;2022-12-18T01:11:29;95612.81;;;6.18;100.00
20622;BME280;10470;42.670;23.354;2022-12-18T01:14:15;95612.81;;;6.18;100.00
20622;BME280;10470;42.670;23.354;2022-12-18T01:17:00;95612.75;;;6.29;100.00
20622;BME280;10470;42.670;23.354;2022-12-18T01:19:47;95624.28;;;6.37;100.00
20622;BME280;10470;42.670;23.354;2022-12-18T01:22:33;95619.47;;;6.10;100.00
20622;BME280;10470;42.670;23.354;2022-12-18T01:25:18;95607.91;;;6.02;100.00
20622;BME280;10470;42.670;23.354;2022-12-18T01:28:04;95616.09;;;5.88;100.00
20622;BME280;10470;42.670;23.354;2022-12-18T01:30:49;95612.75;;;5.66;100.00
20622;BME280;10470;42.670;23.354;2022-12-18T01:33:35;95623.88;;;5.75;100.00
20622;BME280;10470;42.670;23.354;2022-12-18T01:36:26;95631.59;;;5.80;100.00
20622;BME280;10470;42.670;23.354;2022-12-18T01:39:13;95636.22;;;5.80;100.00
20622;BME280;10470;42.670;23.354;2022-12-18T01:42:00;95634.75;;;5.64;100.00
20622;BME280;10470;42.670;23.354;2022-12-18T01:45:03;95632.44;;;5.63;100.00
20622;BME280;10470;42.670;23.354;2022-12-18T01:47:51;95614.31;;;5.60;100.00
20622;BME280;10470;42.670;23.354;2022-12-18T01:50:40;95641.72;;;5.62;100.00
20622;BME280;10470;42.670;23.354;2022-12-18T01:53:27;95636.25;;;5.73;100.00
20622;BME280;10470;42.670;23.354;2022-12-18T01:56:15;95638.97;;;5.76;100.00
20622;BME280;10470;42.670;23.354;2022-12-18T01:59:06;95633.69;;;5.47;100.00
20622;BME280;10470;42.670;23.354;2022-12-18T02:01:54;95605.56;;;5.31;100.00
20622;BME280;10470;42.670;23.354;2022-12-18T02:04:41;95656.13;;;5.37;100.00
20622;BME280;10470;42.670;23.354;2022-12-18T02:08:16;95640.66;;;5.38;100.00
20622;BME280;10470;42.670;23.354;2022-12-18T02:10:47;95651.81;;;5.47;100.00
20622;BME280;10470;42.670;23.354;2022-12-18T02:13:48;95652.59;;;5.44;100.00
20622;BME280;10470;42.670;23.354;2022-12-18T02:20:20;95668.44;;;5.42;100.00
20622;BME280;10470;42.670;23.354;2022-12-18T02:29:16;95667.66;;;5.48;100.00
20622;BME280;10470;42.670;23.354;2022-12-18T02:32:05;95667.28;;;5.43;100.00
20622;BME280;10470;42.670;23.354;2022-12-18T02:34:55;95665.38;;;5.40;100.00
20622;BME280;10470;42.670;23.354;2022-12-18T02:37:43;95668.84;;;5.37;100.00
20622;BME280;10470;42.670;23.354;2022-12-18T02:40:30;95673.06;;;5.48;100.00
20622;BME280;10470;42.670;23.354;2022-12-18T02:43:16;95683.09;;;5.48;100.00
20622;BME280;10470;42.670;23.354;2022-12-18T02:59:01;95686.28;;;5.07;100.00
20622;BME280;10470;42.670;23.354;2022-12-18T03:05:04;95683.22;;;5.09;100.00
20622;BME280;10470;42.670;23.354;2022-12-18T03:08:09;95690.50;;;5.22;100.00
20622;BME280;10470;42.670;23.354;2022-12-18T03:11:03;95699.38;;;5.16;100.00
20622;BME280;10470;42.670;23.354;2022-12-18T03:13:53;95694.41;;;5.03;100.00
20622;BME280;10470;42.670;23.354;2022-12-18T03:16:42;95699.78;;;5.14;100.00
20622;BME280;10470;42.670;23.354;2022-12-18T03:19:32;95706.34;;;5.13;100.00
20622;BME280;10470;42.670;23.354;2022-12-18T03:22:18;95708.28;;;5.06;100.00
20622;BME280;10470;42.670;23.354;2022-12-18T03:25:06;95705.59;;;5.09;100.00
20622;BME280;10470;42.670;23.354;2022-12-18T03:27:55;95707.50;;;5.12;100.00
20622;BME280;10470;42.670;23.354;2022-12-18T03:30:44;95703.66;;;5.06;100.00
20622;BME280;10470;42.670;23.354;2022-12-18T03:33:57;95713.28;;;5.11;100.00
20622;BME280;10470;42.670;23.354;2022-12-18T03:36:44;95717.56;;;4.90;100.00
20622;BME280;10470;42.670;23.354;2022-12-18T03:39:30;95707.53;;;4.84;100.00
20622;BME280;10470;42.670;23.354;2022-12-18T03:42:33;95725.28;;;4.92;100.00
20622;BME280;10470;42.670;23.354;2022-12-18T03:45:28;95738.00;;;5.02;100.00
20622;BME280;10470;42.670;23.354;2022-12-18T03:48:20;95751.50;;;5.02;100.00
20622;BME280;10470;42.670;23.354;2022-12-18T03:51:17;95749.97;;;4.87;100.00
20622;BME280;10470;42.670;23.354;2022-12-18T03:54:05;95755.75;;;4.99;100.00
20622;BME280;10470;42.670;23.354;2022-12-18T03:57:02;95760.00;;;4.93;100.00
20622;BME280;10470;42.670;23.354;2022-12-18T03:59:35;95760.38;;;4.85;100.00
20622;BME280;10470;42.670;23.354;2022-12-18T04:02:24;95763.84;;;4.89;100.00
20622;BME280;10470;42.670;23.354;2022-12-18T04:05:10;95758.84;;;5.05;100.00
20622;BME280;10470;42.670;23.354;2022-12-18T04:07:57;95757.69;;;4.85;100.00
20622;BME280;10470;42.670;23.354;2022-12-18T04:10:43;95753.44;;;4.91;100.00
20622;BME280;10470;42.670;23.354;2022-12-18T04:13:32;95769.63;;;4.87;100.00
20622;BME280;10470;42.670;23.354;2022-12-18T04:16:18;95781.97;;;4.81;100.00
20622;BME280;10470;42.670;23.354;2022-12-18T04:19:03;95789.69;;;4.90;100.00
20622;BME280;10470;42.670;23.354;2022-12-18T04:21:49;95764.63;;;4.75;100.00
20622;BME280;10470;42.670;23.354;2022-12-18T04:24:34;95789.31;;;4.91;100.00
20622;BME280;10470;42.670;23.354;2022-12-18T04:27:20;95782.38;;;4.72;100.00
20622;BME280;10470;42.670;23.354;2022-12-18T04:30:06;95787.00;;;4.79;100.00
20622;BME280;10470;42.670;23.354;2022-12-18T04:32:51;95797.41;;;4.88;100.00
20622;BME280;10470;42.670;23.354;2022-12-18T04:35:37;95803.97;;;4.72;100.00
20622;BME280;10470;42.670;23.354;2022-12-18T04:38:23;95807.81;;;4.78;100.00
20622;BME280;10470;42.670;23.354;2022-12-18T04:41:08;95814.38;;;4.81;100.00
20622;BME280;10470;42.670;23.354;2022-12-18T04:43:54;95821.72;;;4.95;100.00
20622;BME280;10470;42.670;23.354;2022-12-18T04:46:24;95830.97;;;4.72;100.00
20622;BME280;10470;42.670;23.354;2022-12-18T04:49:10;95829.41;;;4.71;100.00
20622;BME280;10470;42.670;23.354;2022-12-18T04:51:58;95804.72;;;4.69;100.00
20622;BME280;10470;42.670;23.354;2022-12-18T04:54:44;95825.56;;;4.79;100.00
20622;BME280;10470;42.670;23.354;2022-12-18T04:57:29;95839.44;;;4.81;100.00
20622;BME280;10470;42.670;23.354;2022-12-18T05:00:15;95842.13;;;4.67;100.00
20622;BME280;10470;42.670;23.354;2022-12-18T05:03:01;95849.47;;;4.70;100.00
20622;BME280;10470;42.670;23.354;2022-12-18T05:05:51;95847.91;;;4.66;100.00
20622;BME280;10470;42.670;23.354;2022-12-18T05:08:36;95862.94;;;4.67;100.00
20622;BME280;10470;42.670;23.354;2022-12-18T05:11:22;95848.66;;;4.55;100.00
20622;BME280;10470;42.670;23.354;2022-12-18T05:14:07;95863.31;;;4.62;100.00
20622;BME280;10470;42.670;23.354;2022-12-18T05:16:52;95856.72;;;4.41;100.00
20622;BME280;10470;42.670;23.354;2022-12-18T05:19:38;95867.50;;;4.45;100.00
20622;BME280;10470;42.670;23.354;2022-12-18T05:22:23;95869.41;;;4.41;100.00
20622;BME280;10470;42.670;23.354;2022-12-18T05:25:10;95883.34;;;4.46;100.00
20622;BME280;10470;42.670;23.354;2022-12-18T05:27:55;95885.59;;;4.37;100.00
20622;BME280;10470;42.670;23.354;2022-12-18T05:30:40;95891.00;;;4.41;100.00
20622;BME280;10470;42.670;23.354;2022-12-18T05:33:29;95893.97;;;4.18;100.00
20622;BME280;10470;42.670;23.354;2022-12-18T05:36:15;95905.22;;;4.30;100.00
20622;BME280;10470;42.670;23.354;2022-12-18T05:39:00;95919.50;;;4.31;100.00
20622;BME280;10470;42.670;23.354;2022-12-18T05:41:46;95911.75;;;4.29;100.00
20622;BME280;10470;42.670;23.354;2022-12-18T05:44:31;95908.75;;;4.42;100.00
20622;BME280;10470;42.670;23.354;2022-12-18T05:47:17;95909.47;;;4.35;100.00
20622;BME280;10470;42.670;23.354;2022-12-18T05:50:02;95908.72;;;4.34;100.00
20622;BME280;10470;42.670;23.354;2022-12-18T05:52:48;95920.66;;;4.37;100.00
20622;BME280;10470;42.670;23.354;2022-12-18T05:55:35;95910.25;;;4.35;100.00
20622;BME280;10470;42.670;23.354;2022-12-18T05:58:21;95910.16;;;4.18;100.00
20622;BME280;10470;42.670;23.354;2022-12-18T06:01:18;95910.59;;;4.23;100.00
20622;BME280;10470;42.670;23.354;2022-12-18T06:04:04;95934.00;;;4.12;100.00
20622;BME280;10470;42.670;23.354;2022-12-18T06:06:49;95929.84;;;4.22;100.00
20622;BME280;10470;42.670;23.354;2022-12-18T06:09:35;95924.75;;;4.06;100.00
20622;BME280;10470;42.670;23.354;2022-12-18T06:12:20;95930.19;;;4.13;100.00
20622;BME280;10470;42.670;23.354;2022-12-18T06:15:04;95919.34;;;4.02;100.00
20622;BME280;10470;42.670;23.354;2022-12-18T06:17:51;95923.56;;;4.03;100.00
20622;BME280;10470;42.670;23.354;2022-12-18T06:20:36;95931.31;;;4.08;100.00
20622;BME280;10470;42.670;23.354;2022-12-18T06:23:24;95933.63;;;4.10;100.00
20622;BME280;10470;42.670;23.354;2022-12-18T06:26:12;95932.78;;;3.95;100.00
20622;BME280;10470;42.670;23.354;2022-12-18T06:28:57;95957.94;;;4.17;100.00
20622;BME280;10470;42.670;23.354;2022-12-18T06:31:43;95946.72;;;4.11;100.00
20622;BME280;10470;42.670;23.354;2022-12-18T06:34:28;95944.38;;;4.06;100.00
20622;BME280;10470;42.670;23.354;2022-12-18T06:37:13;95963.81;;;4.33;100.00
20622;BME280;10470;42.670;23.354;2022-12-18T06:39:59;95964.53;;;4.23;100.00
20622;BME280;10470;42.670;23.354;2022-12-18T06:42:46;95967.97;;;4.20;100.00
20622;BME280;10470;42.670;23.354;2022-12-18T06:45:31;95982.63;;;4.23;100.00
20622;BME280;10470;42.670;23.354;2022-12-18T06:48:19;95988.47;;;4.28;100.00
20622;BME280;10470;42.670;23.354;2022-12-18T06:51:06;95978.09;;;4.37;100.00
20622;BME280;10470;42.670;23.354;2022-12-18T06:53:52;95911.19;;;3.95;100.00
20622;BME280;10470;42.670;23.354;2022-12-18T06:56:37;95984.97;;;4.28;100.00
20622;BME280;10470;42.670;23.354;2022-12-18T06:59:23;95985.06;;;4.38;100.00
20622;BME280;10470;42.670;23.354;2022-12-18T07:02:11;95992.75;;;4.40;100.00
20622;BME280;10470;42.670;23.354;2022-12-18T07:04:57;95982.72;;;4.33;100.00
20622;BME280;10470;42.670;23.354;2022-12-18T07:07:44;95999.72;;;4.41;100.00
20622;BME280;10470;42.670;23.354;2022-12-18T07:10:29;96008.66;;;4.56;100.00
20622;BME280;10470;42.670;23.354;2022-12-18T07:13:13;95984.25;;;4.34;100.00
20622;BME280;10470;42.670;23.354;2022-12-18T07:16:07;96005.13;;;4.48;100.00
20622;BME280;10470;42.670;23.354;2022-12-18T07:18:54;96006.63;;;4.38;100.00
20622;BME280;10470;42.670;23.354;2022-12-18T07:21:40;96006.28;;;4.47;100.00
20622;BME280;10470;42.670;23.354;2022-12-18T07:24:25;95997.78;;;4.42;100.00
20622;BME280;10470;42.670;23.354;2022-12-18T07:27:11;95998.91;;;4.33;100.00
20622;BME280;10470;42.670;23.354;2022-12-18T07:29:56;96018.22;;;4.43;100.00
20622;BME280;10470;42.670;23.354;2022-12-18T07:32:42;96024.78;;;4.42;100.00
20622;BME280;10470;42.670;23.354;2022-12-18T07:35:27;96020.00;;;4.21;100.00
20622;BME280;10470;42.670;23.354;2022-12-18T07:38:13;95982.00;;;3.88;100.00
20622;BME280;10470;42.670;23.354;2022-12-18T07:41:07;96019.19;;;4.16;100.00
20622;BME280;10470;42.670;23.354;2022-12-18T07:43:52;96036.22;;;4.28;100.00
20622;BME280;10470;42.670;23.354;2022-12-18T07:46:38;96019.66;;;4.26;100.00
20622;BME280;10470;42.670;23.354;2022-12-18T07:49:16;96025.78;;;4.19;100.00
20622;BME280;10470;42.670;23.354;2022-12-18T07:52:02;96033.44;;;4.10;100.00
20622;BME280;10470;42.670;23.354;2022-12-18T07:54:47;96042.66;;;4.09;100.00
20622;BME280;10470;42.670;23.354;2022-12-18T07:57:35;96032.63;;;4.09;100.00
20622;BME280;10470;42.670;23.354;2022-12-18T08:00:20;96046.44;;;4.01;100.00
20622;BME280;10470;42.670;23.354;2022-12-18T08:03:06;96042.94;;;3.97;100.00
20622;BME280;10470;42.670;23.354;2022-12-18T08:05:51;96055.91;;;4.28;100.00
20622;BME280;10470;42.670;23.354;2022-12-18T08:08:37;96035.31;;;4.06;100.00
20622;BME280;10470;42.670;23.354;2022-12-18T08:11:25;96065.81;;;4.13;100.00
20622;BME280;10470;42.670;23.354;2022-12-18T08:14:10;96068.03;;;4.04;100.00
20622;BME280;10470;42.670;23.354;2022-12-18T08:16:56;96035.84;;;3.78;100.00
20622;BME280;10470;42.670;23.354;2022-12-18T08:19:42;96052.59;;;3.98;100.00
20622;BME280;10470;42.670;23.354;2022-12-18T08:22:27;96048.22;;;3.82;100.00
20622;BME280;10470;42.670;23.354;2022-12-18T08:25:12;96086.13;;;4.04;100.00
20622;BME280;10470;42.670;23.354;2022-12-18T08:27:58;96069.09;;;3.92;100.00
20622;BME280;10470;42.670;23.354;2022-12-18T08:30:44;96066.31;;;3.82;100.00
20622;BME280;10470;42.670;23.354;2022-12-18T08:33:29;96095.06;;;4.11;100.00
20622;BME280;10470;42.670;23.354;2022-12-18T08:36:15;96098.44;;;3.98;100.00
20622;BME280;10470;42.670;23.354;2022-12-18T08:39:00;96085.63;;;3.87;100.00
20622;BME280;10470;42.670;23.354;2022-12-18T08:41:46;96062.97;;;3.96;100.00
20622;BME280;10470;42.670;23.354;2022-12-18T08:44:51;96098.84;;;4.03;100.00
20622;BME280;10470;42.670;23.354;2022-12-18T08:47:37;96096.50;;;3.98;100.00
20622;BME280;10470;42.670;23.354;2022-12-18T08:50:22;96088.44;;;4.02;100.00
20622;BME280;10470;42.670;23.354;2022-12-18T08:53:08;96109.63;;;4.03;100.00
20622;BME280;10470;42.670;23.354;2022-12-18T08:55:56;96043.75;;;3.60;100.00
20622;BME280;10470;42.670;23.354;2022-12-18T08:58:42;96088.47;;;4.05;100.00
20622;BME280;10470;42.670;23.354;2022-12-18T09:01:27;96107.31;;;4.02;100.00
20622;BME280;10470;42.670;23.354;2022-12-18T09:04:13;96095.34;;;3.99;100.00
20622;BME280;10470;42.670;23.354;2022-12-18T09:06:55;96103.81;;;3.98;100.00
20622;BME280;10470;42.670;23.354;2022-12-18T09:09:41;96084.13;;;3.93;100.00
20622;BME280;10470;42.670;23.354;2022-12-18T09:12:26;96105.41;;;4.02;100.00
20622;BME280;10470;42.670;23.354;2022-12-18T09:15:12;96073.75;;;3.96;100.00
20622;BME280;10470;42.670;23.354;2022-12-18T09:17:58;96085.00;;;4.05;100.00
20622;BME280;10470;42.670;23.354;2022-12-18T09:20:44;96093.19;;;4.19;100.00
20622;BME280;10470;42.670;23.354;2022-12-18T09:23:29;96107.13;;;4.25;100.00
20622;BME280;10470;42.670;23.354;2022-12-18T09:26:14;96088.13;;;4.10;100.00
20622;BME280;10470;42.670;23.354;2022-12-18T09:29:00;96113.34;;;4.32;100.00
20622;BME280;10470;42.670;23.354;2022-12-18T09:31:48;96089.59;;;4.04;100.00
20622;BME280;10470;42.670;23.354;2022-12-18T09:34:34;96103.78;;;4.38;100.00
20622;BME280;10470;42.670;23.354;2022-12-18T09:37:20;96107.25;;;4.43;100.00
20622;BME280;10470;42.670;23.354;2022-12-18T09:40:06;96113.91;;;4.52;100.00
20622;BME280;10470;42.670;23.354;2022-12-18T09:42:54;96113.69;;;4.27;100.00
20622;BME280;10470;42.670;23.354;2022-12-18T09:45:44;96113.78;;;4.38;100.00
20622;BME280;10470;42.670;23.354;2022-12-18T09:48:35;96094.44;;;4.29;100.00
20622;BME280;10470;42.670;23.354;2022-12-18T09:51:29;96104.13;;;4.33;100.00
20622;BME280;10470;42.670;23.354;2022-12-18T09:54:26;96103.84;;;4.49;100.00
20622;BME280;10470;42.670;23.354;2022-12-18T09:57:15;96113.63;;;4.72;100.00
20622;BME280;10470;42.670;23.354;2022-12-18T10:00:21;96114.69;;;4.56;100.00
20622;BME280;10470;42.670;23.354;2022-12-18T10:03:09;96108.16;;;4.61;100.00
20622;BME280;10470;42.670;23.354;2022-12-18T10:08:57;96109.25;;;4.49;100.00
20622;BME280;10470;42.670;23.354;2022-12-18T10:18:23;96124.69;;;4.56;100.00
20622;BME280;10470;42.670;23.354;2022-12-18T10:21:14;96125.47;;;4.56;100.00
20622;BME280;10470;42.670;23.354;2022-12-18T10:27:14;96123.28;;;4.73;100.00
20622;BME280;10470;42.670;23.354;2022-12-18T10:30:01;96130.34;;;4.92;100.00
20622;BME280;10470;42.670;23.354;2022-12-18T10:32:50;96117.91;;;4.76;100.00
20622;BME280;10470;42.670;23.354;2022-12-18T10:35:36;96126.00;;;4.76;100.00
20622;BME280;10470;42.670;23.354;2022-12-18T10:38:30;96115.59;;;4.78;100.00
20622;BME280;10470;42.670;23.354;2022-12-18T10:44:20;96119.91;;;4.87;100.00
20622;BME280;10470;42.670;23.354;2022-12-18T10:47:12;96128.81;;;4.98;100.00
20622;BME280;10470;42.670;23.354;2022-12-18T10:49:52;96114.88;;;4.85;100.00
20622;BME280;10470;42.670;23.354;2022-12-18T10:52:40;96117.13;;;4.72;100.00
20622;BME280;10470;42.670;23.354;2022-12-18T10:55:33;96110.22;;;4.82;100.00
20622;BME280;10470;42.670;23.354;2022-12-18T10:58:30;96114.59;;;5.01;100.00
20622;BME280;10470;42.670;23.354;2022-12-18T11:01:17;96127.75;;;5.10;100.00
20622;BME280;10470;42.670;23.354;2022-12-18T11:04:08;96120.34;;;4.96;100.00
20622;BME280;10470;42.670;23.354;2022-12-18T11:07:06;96108.06;;;5.13;100.00
20622;BME280;10470;42.670;23.354;2022-12-18T11:10:00;96118.81;;;4.98;100.00
20622;BME280;10470;42.670;23.354;2022-12-18T11:12:46;96105.22;;;4.80;100.00
20622;BME280;10470;42.670;23.354;2022-12-18T11:15:33;96114.59;;;5.01;100.00
20622;BME280;10470;42.670;23.354;2022-12-18T11:18:34;96125.47;;;5.15;100.00
20622;BME280;10470;42.670;23.354;2022-12-18T11:21:20;96111.91;;;5.08;100.00
20622;BME280;10470;42.670;23.354;2022-12-18T11:24:22;96140.75;;;4.90;100.00
20622;BME280;10470;42.670;23.354;2022-12-18T11:27:17;96114.91;;;4.89;100.00
20622;BME280;10470;42.670;23.354;2022-12-18T11:30:24;96121.63;;;5.16;100.00
20622;BME280;10470;42.670;23.354;2022-12-18T11:33:28;96114.66;;;5.12;100.00
20622;BME280;10470;42.670;23.354;2022-12-18T11:36:14;96117.25;;;4.97;100.00
20622;BME280;10470;42.670;23.354;2022-12-18T11:39:07;96119.63;;;5.06;100.00
20622;BME280;10470;42.670;23.354;2022-12-18T11:41:59;96112.66;;;5.05;100.00
20622;BME280;10470;42.670;23.354;2022-12-18T11:50:48;96127.03;;;5.16;100.00
20622;BME280;10470;42.670;23.354;2022-12-18T11:53:35;96131.66;;;5.23;100.00
20622;BME280;10470;42.670;23.354;2022-12-18T11:56:28;96121.19;;;5.11;100.00
20622;BME280;10470;42.670;23.354;2022-12-18T12:03:02;96125.97;;;5.46;100.00
20622;BME280;10470;42.670;23.354;2022-12-18T12:11:59;96126.72;;;5.39;100.00
20622;BME280;10470;42.670;23.354;2022-12-18T12:15:13;96130.91;;;5.19;100.00
20622;BME280;10470;42.670;23.354;2022-12-18T12:33:45;96144.34;;;5.12;100.00
20622;BME280;10470;42.670;23.354;2022-12-18T12:39:30;96127.09;;;5.38;100.00
20622;BME280;10470;42.670;23.354;2022-12-18T12:42:31;96131.31;;;5.24;100.00
20622;BME280;10470;42.670;23.354;2022-12-18T12:46:08;96128.56;;;5.17;100.00
20622;BME280;10470;42.670;23.354;2022-12-18T12:49:02;96118.47;;;5.11;100.00
20622;BME280;10470;42.670;23.354;2022-12-18T12:52:00;96139.41;;;5.24;100.00
20622;BME280;10470;42.670;23.354;2022-12-18T12:54:49;96150.63;;;5.30;100.00
20622;BME280;10470;42.670;23.354;2022-12-18T12:57:43;96131.38;;;5.42;100.00
20622;BME280;10470;42.670;23.354;2022-12-18T13:00:39;96139.84;;;5.37;100.00
20622;BME280;10470;42.670;23.354;2022-12-18T13:03:56;96154.59;;;5.51;100.00
20622;BME280;10470;42.670;23.354;2022-12-18T13:06:53;96146.03;;;5.38;100.00
20622;BME280;10470;42.670;23.354;2022-12-18T13:13:14;96157.59;;;5.38;100.00
20622;BME280;10470;42.670;23.354;2022-12-18T13:16:05;96170.06;;;5.61;100.00
20622;BME280;10470;42.670;23.354;2022-12-18T13:18:56;96168.06;;;5.43;100.00
20622;BME280;10470;42.670;23.354;2022-12-18T13:21:53;96163.72;;;5.28;100.00
20622;BME280;10470;42.670;23.354;2022-12-18T13:24:39;96154.34;;;5.08;100.00
20622;BME280;10470;42.670;23.354;2022-12-18T13:36:30;96195.41;;;5.31;100.00
20622;BME280;10470;42.670;23.354;2022-12-18T13:44:40;96177.66;;;5.30;100.00
20622;BME280;10470;42.670;23.354;2022-12-18T13:47:35;96182.59;;;5.17;100.00
20622;BME280;10470;42.670;23.354;2022-12-18T13:50:24;96178.72;;;5.15;100.00
20622;BME280;10470;42.670;23.354;2022-12-18T13:53:27;96181.56;;;5.43;100.00
20622;BME280;10470;42.670;23.354;2022-12-18T13:56:18;96198.59;;;5.47;100.00
20622;BME280;10470;42.670;23.354;2022-12-18T13:59:25;96201.56;;;5.24;100.00
20622;BME280;10470;42.670;23.354;2022-12-18T14:02:17;96192.03;;;5.45;100.00
20622;BME280;10470;42.670;23.354;2022-12-18T14:05:03;96211.00;;;5.59;100.00
20622;BME280;10470;42.670;23.354;2022-12-18T14:07:49;96218.75;;;5.64;100.00
20622;BME280;10470;42.670;23.354;2022-12-18T14:10:35;96209.91;;;5.71;100.00
20622;BME280;10470;42.670;23.354;2022-12-18T14:13:32;96210.84;;;5.31;100.00
20622;BME280;10470;42.670;23.354;2022-12-18T14:16:19;96210.84;;;5.31;100.00
20622;BME280;10470;42.670;23.354;2022-12-18T14:19:08;96215.84;;;5.25;100.00
20622;BME280;10470;42.670;23.354;2022-12-18T14:21:57;96222.69;;;5.12;100.00
20622;BME280;10470;42.670;23.354;2022-12-18T14:24:42;96217.00;;;5.28;100.00
20622;BME280;10470;42.670;23.354;2022-12-18T14:27:28;96219.31;;;5.29;100.00
20622;BME280;10470;42.670;23.354;2022-12-18T14:30:29;96224.00;;;5.36;100.00
20622;BME280;10470;42.670;23.354;2022-12-18T14:33:20;96222.00;;;5.25;100.00
20622;BME280;10470;42.670;23.354;2022-12-18T14:36:16;96227.44;;;5.29;100.00
20622;BME280;10470;42.670;23.354;2022-12-18T14:39:02;96219.31;;;5.25;100.00
20622;BME280;10470;42.670;23.354;2022-12-18T14:41:51;96226.66;;;5.29;100.00
20622;BME280;10470;42.670;23.354;2022-12-18T14:44:36;96221.19;;;5.14;100.00
20622;BME280;10470;42.670;23.354;2022-12-18T14:47:22;96214.13;;;5.02;100.00
20622;BME280;10470;42.670;23.354;2022-12-18T14:50:13;96221.47;;;5.02;100.00
20622;BME280;10470;42.670;23.354;2022-12-18T14:52:59;96219.53;;;5.02;100.00
20622;BME280;10470;42.670;23.354;2022-12-18T14:55:48;96214.50;;;4.97;100.00
20622;BME280;10470;42.670;23.354;2022-12-18T14:58:34;96229.09;;;4.89;100.00
20622;BME280;10470;42.670;23.354;2022-12-18T15:01:28;96200.34;;;4.63;100.00
20622;BME280;10470;42.670;23.354;2022-12-18T15:04:36;96234.44;;;4.82;100.00
20622;BME280;10470;42.670;23.354;2022-12-18T15:07:24;96226.38;;;4.86;100.00
20622;BME280;10470;42.670;23.354;2022-12-18T15:10:18;96221.31;;;4.80;100.00
20622;BME280;10470;42.670;23.354;2022-12-18T15:15:52;96229.69;;;4.65;100.00
20622;BME280;10470;42.670;23.354;2022-12-18T15:18:41;96240.72;;;4.93;100.00
20622;BME280;10470;42.670;23.354;2022-12-18T15:21:27;96242.50;;;4.75;100.00
20622;BME280;10470;42.670;23.354;2022-12-18T15:24:21;96241.75;;;4.81;100.00
20622;BME280;10470;42.670;23.354;2022-12-18T15:27:26;96252.22;;;4.87;100.00
20622;BME280;10470;42.670;23.354;2022-12-18T15:30:16;96258.00;;;4.85;100.00
20622;BME280;10470;42.670;23.354;2022-12-18T15:33:23;96259.06;;;4.77;100.00
20622;BME280;10470;42.670;23.354;2022-12-18T15:36:14;96255.94;;;4.71;100.00
20622;BME280;10470;42.670;23.354;2022-12-18T15:39:00;96255.09;;;4.64;100.00
20622;BME280;10470;42.670;23.354;2022-12-18T15:41:46;96263.63;;;4.69;100.00
20622;BME280;10470;42.670;23.354;2022-12-18T15:44:50;96268.66;;;4.71;100.00
20622;BME280;10470;42.670;23.354;2022-12-18T15:47:26;96266.63;;;4.57;100.00
20622;BME280;10470;42.670;23.354;2022-12-18T15:50:11;96264.94;;;4.42;100.00
20622;BME280;10470;42.670;23.354;2022-12-18T15:52:57;96274.38;;;4.62;100.00
20622;BME280;10470;42.670;23.354;2022-12-18T15:55:42;96268.16;;;4.58;100.00
20622;BME280;10470;42.670;23.354;2022-12-18T15:58:46;96280.22;;;4.68;100.00
20622;BME280;10470;42.670;23.354;2022-12-18T16:01:31;96281.00;;;4.68;100.00
20622;BME280;10470;42.670;23.354;2022-12-18T16:04:19;96282.22;;;4.37;100.00
20622;BME280;10470;42.670;23.354;2022-12-18T16:07:09;96304.34;;;4.50;100.00
20622;BME280;10470;42.670;23.354;2022-12-18T16:09:54;96312.13;;;4.58;100.00
20622;BME280;10470;42.670;23.354;2022-12-18T16:12:40;96300.16;;;4.56;100.00
20622;BME280;10470;42.670;23.354;2022-12-18T16:15:19;96302.38;;;4.47;100.00
20622;BME280;10470;42.670;23.354;2022-12-18T16:18:04;96295.66;;;4.67;100.00
20622;BME280;10470;42.670;23.354;2022-12-18T16:20:50;96297.00;;;4.50;100.00